KPOF/POF METAR and TAF weather

Enter ICAO airport designator
Station Type Date Time Source
KPOF METAR 2022/01/25 03:53 UTC NOAA

KPOF 250353Z AUTO 02012KT 10SM CLR 06/01 A2991 RMK AO2 SLP133 T00610006


Station Type Date Time Source
KPOF Decoded METAR 2022/01/25 03:53 UTC NOAA

POPLAR BLUFF MUN AIRPORT, MO, United States (KPOF) 36-46N 090-19W 100M
Jan 24, 2022 - 10:53 PM EST / 2022.01.25 0353 UTC
Wind: from the NNE (020 degrees) at 14 MPH (12 KT):0
Visibility: 10 mile(s):0
Sky conditions: clear
Temperature: 43.0 F (6.1 C)
Dew Point: 33.1 F (0.6 C)
Relative Humidity: 67%
Pressure (altimeter): 29.91 in. Hg (1012 hPa)
ob: KPOF 250353Z AUTO 02012KT 10SM CLR 06/01 A2991 RMK AO2 SLP133 T00610006
cycle: 4

Station Type Date Time Source
KPOF TAF UTC NOAA

Error!

Example: see airport list